Time;durP1;ratioP1;P1;durP2;ratioP2;P2;SDS_P1;SDS_P2;PMS_P1;PMS_P2;Temp;Humidity;BMP_temperature;BMP_pressure;BME280_temperature;BME280_humidity;BME280_pressure;Samples;Min_cycle;Max_cycle;Signal;HPM_P1;HPM_P2
2022/03/24 00:04:56;;;;;;;34.10;26.60;;;;;;;;;;10309363;28;20408;-94
2022/03/24 00:09:58;;;;;;;35.15;26.38;;;;;;;;;;10322802;28;20397;-93
2022/03/24 00:15:00;;;;;;;37.25;25.73;;;;;;;;;;10306675;28;20429;-93
2022/03/24 00:20:05;;;;;;;36.20;27.08;;;;;;;;;;10312298;28;20432;-95
2022/03/24 00:25:08;;;;;;;36.05;26.55;;;;;;;;;;10300168;28;20428;-95
2022/03/24 00:30:12;;;;;;;33.95;25.70;;;;;;;;;;10286426;28;20821;-95
2022/03/24 00:35:15;;;;;;;34.47;26.10;;;;;;;;;;10300048;28;20436;-94
2022/03/24 00:40:17;;;;;;;33.47;24.70;;;;;;;;;;10319015;28;20427;-94
2022/03/24 00:45:20;;;;;;;33.10;25.17;;;;;;;;;;10284640;28;20476;-95
2022/03/24 00:50:24;;;;;;;31.75;24.20;;;;;;;;;;10289526;28;20942;-94
2022/03/24 00:55:26;;;;;;;32.83;23.70;;;;;;;;;;10286663;28;20507;-95
2022/03/24 01:00:28;;;;;;;32.00;24.47;;;;;;;;;;10313654;28;20463;-95
2022/03/24 01:05:32;;;;;;;32.17;23.92;;;;;;;;;;10291804;28;20454;-95
2022/03/24 01:10:34;;;;;;;31.37;23.67;;;;;;;;;;10296473;28;20418;-94
2022/03/24 01:15:41;;;;;;;32.50;22.87;;;;;;;;;;10319422;28;20461;-95
2022/03/24 01:20:45;;;;;;;32.58;23.02;;;;;;;;;;10307606;28;20459;-94
2022/03/24 01:25:48;;;;;;;30.50;22.77;;;;;;;;;;10298078;28;20541;-94
2022/03/24 01:30:50;;;;;;;31.40;22.48;;;;;;;;;;10289492;28;20899;-94
2022/03/24 01:35:54;;;;;;;31.17;21.95;;;;;;;;;;10299533;28;20487;-95
2022/03/24 01:40:58;;;;;;;31.73;22.77;;;;;;;;;;10316413;28;20508;-95
2022/03/24 01:46:01;;;;;;;29.88;22.30;;;;;;;;;;10292889;28;20419;-95
2022/03/24 01:51:04;;;;;;;28.08;21.85;;;;;;;;;;10306458;28;20418;-94
2022/03/24 01:56:07;;;;;;;27.38;20.65;;;;;;;;;;10293877;28;20472;-96
2022/03/24 02:01:29;;;;;;;30.10;20.85;;;;;;;;;;10294359;28;20465;-95
2022/03/24 02:06:33;;;;;;;29.00;21.42;;;;;;;;;;10283593;28;20476;-95
2022/03/24 02:11:35;;;;;;;30.15;21.50;;;;;;;;;;10309217;28;20447;-95
2022/03/24 02:16:39;;;;;;;26.58;19.80;;;;;;;;;;10283506;28;20410;-96
2022/03/24 02:21:44;;;;;;;26.77;20.30;;;;;;;;;;10295068;28;20418;-94
2022/03/24 02:26:50;;;;;;;26.98;20.52;;;;;;;;;;10291209;28;20412;-96
2022/03/24 02:31:52;;;;;;;25.08;19.70;;;;;;;;;;10311230;28;20637;-95
2022/03/24 02:36:54;;;;;;;27.90;19.77;;;;;;;;;;10311590;28;20436;-93
2022/03/24 02:42:01;;;;;;;26.10;18.73;;;;;;;;;;10262684;28;20434;-95
2022/03/24 02:47:06;;;;;;;27.38;18.55;;;;;;;;;;10248706;28;20519;-94
2022/03/24 02:52:09;;;;;;;22.90;17.17;;;;;;;;;;10284414;28;20447;-95
2022/03/24 02:57:14;;;;;;;23.97;17.27;;;;;;;;;;10242088;28;20453;-94
2022/03/24 03:02:18;;;;;;;22.35;17.23;;;;;;;;;;10223912;28;20506;-94
2022/03/24 03:07:21;;;;;;;23.98;16.33;;;;;;;;;;10288418;28;20487;-94
2022/03/24 03:12:26;;;;;;;20.42;15.88;;;;;;;;;;10263248;28;20414;-94
2022/03/24 03:17:28;;;;;;;22.02;16.20;;;;;;;;;;10282070;28;20603;-94
2022/03/24 03:22:30;;;;;;;22.20;16.73;;;;;;;;;;10304492;28;20512;-94
2022/03/24 03:27:34;;;;;;;20.83;15.87;;;;;;;;;;10287221;28;20441;-95
2022/03/24 03:32:36;;;;;;;23.93;17.20;;;;;;;;;;10261791;28;20420;-94
2022/03/24 03:37:39;;;;;;;22.37;16.63;;;;;;;;;;10281068;28;20490;-96
2022/03/24 03:42:44;;;;;;;23.03;16.20;;;;;;;;;;10330893;28;20426;-96
2022/03/24 03:47:46;;;;;;;24.73;16.80;;;;;;;;;;10344432;28;20401;-95
2022/03/24 03:52:48;;;;;;;21.77;16.70;;;;;;;;;;10301158;28;20418;-95
2022/03/24 03:57:52;;;;;;;20.80;17.23;;;;;;;;;;10318397;28;20456;-95
2022/03/24 04:02:54;;;;;;;22.77;16.52;;;;;;;;;;10288019;28;20457;-96
2022/03/24 04:07:56;;;;;;;22.75;16.02;;;;;;;;;;10311347;28;20768;-95
2022/03/24 04:13:00;;;;;;;23.42;16.30;;;;;;;;;;10274472;28;20493;-95
2022/03/24 04:18:02;;;;;;;20.63;15.30;;;;;;;;;;10287335;28;20411;-95
2022/03/24 04:23:05;;;;;;;22.10;15.38;;;;;;;;;;10287122;28;20433;-96
2022/03/24 04:28:10;;;;;;;22.90;15.98;;;;;;;;;;10287240;28;20762;-95
2022/03/24 04:33:12;;;;;;;19.00;15.05;;;;;;;;;;10304188;28;20473;-95
2022/03/24 04:38:14;;;;;;;19.63;15.10;;;;;;;;;;10302484;28;20442;-95
2022/03/24 04:43:18;;;;;;;19.83;14.60;;;;;;;;;;10295873;28;20426;-95
2022/03/24 04:48:21;;;;;;;21.20;15.15;;;;;;;;;;10276594;28;20802;-95
2022/03/24 04:53:23;;;;;;;18.52;14.30;;;;;;;;;;10238879;28;20418;-95
2022/03/24 04:58:27;;;;;;;20.13;13.93;;;;;;;;;;10315923;28;20868;-94
2022/03/24 05:03:29;;;;;;;18.33;13.82;;;;;;;;;;10299641;28;20447;-95
2022/03/24 05:08:32;;;;;;;19.93;14.37;;;;;;;;;;10305131;28;20475;-95
2022/03/24 05:13:35;;;;;;;19.95;14.40;;;;;;;;;;10302548;28;20896;-96
2022/03/24 05:18:38;;;;;;;19.87;14.80;;;;;;;;;;10300512;28;20422;-96
2022/03/24 05:23:40;;;;;;;19.98;14.40;;;;;;;;;;10303954;28;20420;-96
2022/03/24 05:28:44;;;;;;;19.92;14.23;;;;;;;;;;10311347;28;20467;-95
2022/03/24 05:33:47;;;;;;;20.58;14.40;;;;;;;;;;10303903;28;20551;-94
2022/03/24 05:38:49;;;;;;;20.25;14.60;;;;;;;;;;10303516;28;20771;-96
2022/03/24 05:49:10;;;;;;;21.93;14.67;;;;;;;;;;10260410;28;20496;-94
2022/03/24 05:54:13;;;;;;;22.95;15.02;;;;;;;;;;10262996;28;20416;-94
2022/03/24 05:59:19;;;;;;;22.05;15.43;;;;;;;;;;10298621;28;20424;-96
2022/03/24 06:04:24;;;;;;;22.10;15.13;;;;;;;;;;10309896;28;20443;-94
2022/03/24 06:09:28;;;;;;;23.58;14.73;;;;;;;;;;10271204;28;20463;-96
2022/03/24 06:14:32;;;;;;;22.08;14.93;;;;;;;;;;10288716;28;20415;-96
2022/03/24 06:19:35;;;;;;;22.57;14.63;;;;;;;;;;10270288;28;20444;-96
2022/03/24 06:24:37;;;;;;;21.85;14.82;;;;;;;;;;10301916;28;20438;-95
2022/03/24 06:29:41;;;;;;;22.83;15.40;;;;;;;;;;10304104;28;20414;-96
2022/03/24 06:34:45;;;;;;;22.63;14.57;;;;;;;;;;10259537;28;20507;-94
2022/03/24 06:39:46;;;;;;;21.58;16.33;;;;;;;;;;10276713;28;20433;-96
2022/03/24 06:44:50;;;;;;;25.15;17.40;;;;;;;;;;10289676;28;20484;-95
2022/03/24 06:49:53;;;;;;;25.73;17.52;;;;;;;;;;10299944;28;20416;-95
2022/03/24 06:55:14;;;;;;;25.75;17.70;;;;;;;;;;10323154;28;20422;-91
2022/03/24 07:00:18;;;;;;;27.73;18.95;;;;;;;;;;10286017;28;20410;-90
2022/03/24 07:05:20;;;;;;;27.63;17.50;;;;;;;;;;10298187;28;20406;-91
2022/03/24 07:10:22;;;;;;;24.10;16.30;;;;;;;;;;10280713;28;20518;-91
2022/03/24 07:15:26;;;;;;;25.43;16.40;;;;;;;;;;10289212;28;20469;-94
2022/03/24 07:20:28;;;;;;;21.67;16.33;;;;;;;;;;10275025;28;20967;-93
2022/03/24 07:25:30;;;;;;;20.67;14.88;;;;;;;;;;10287118;28;20404;-92
2022/03/24 07:30:37;;;;;;;23.88;14.75;;;;;;;;;;10272477;28;20644;-94
2022/03/24 07:35:39;;;;;;;20.70;14.90;;;;;;;;;;10290079;28;20422;-92
2022/03/24 07:40:40;;;;;;;23.67;15.53;;;;;;;;;;10272691;28;20444;-94
2022/03/24 07:45:44;;;;;;;22.37;15.00;;;;;;;;;;10312093;28;20505;-94
2022/03/24 07:50:48;;;;;;;19.33;12.68;;;;;;;;;;10286103;28;20505;-95
2022/03/24 07:55:50;;;;;;;17.60;12.50;;;;;;;;;;10264358;28;20423;-92
2022/03/24 08:00:57;;;;;;;17.75;11.55;;;;;;;;;;10279251;28;20410;-93
2022/03/24 08:05:59;;;;;;;19.85;13.27;;;;;;;;;;10277152;28;20465;-93
2022/03/24 08:11:01;;;;;;;20.15;13.98;;;;;;;;;;10275214;28;20418;-91
2022/03/24 08:16:05;;;;;;;20.25;14.75;;;;;;;;;;10264460;28;20709;-83
2022/03/24 08:21:08;;;;;;;23.13;16.05;;;;;;;;;;10261662;28;20826;-82
2022/03/24 08:26:10;;;;;;;20.95;15.60;;;;;;;;;;10273141;28;20498;-84
2022/03/24 08:31:13;;;;;;;24.20;16.97;;;;;;;;;;10263168;28;20926;-83
2022/03/24 08:36:15;;;;;;;24.37;17.47;;;;;;;;;;10271966;28;20422;-84
2022/03/24 08:41:17;;;;;;;24.05;18.63;;;;;;;;;;10270263;28;20449;-86
2022/03/24 08:46:24;;;;;;;27.03;18.70;;;;;;;;;;10273315;28;20414;-84
2022/03/24 08:51:26;;;;;;;25.33;19.63;;;;;;;;;;10246093;28;20420;-85
2022/03/24 08:56:28;;;;;;;27.50;19.13;;;;;;;;;;10264227;28;20926;-85
2022/03/24 09:01:31;;;;;;;26.40;19.05;;;;;;;;;;10273864;28;20522;-86
2022/03/24 09:06:33;;;;;;;23.30;18.02;;;;;;;;;;10275711;28;20406;-91
2022/03/24 09:11:35;;;;;;;24.38;18.50;;;;;;;;;;10297153;28;20530;-91
2022/03/24 09:16:38;;;;;;;23.17;18.45;;;;;;;;;;10270907;28;20426;-93
2022/03/24 09:21:40;;;;;;;24.52;17.45;;;;;;;;;;10266485;28;20513;-93
2022/03/24 09:26:42;;;;;;;20.30;15.67;;;;;;;;;;10284437;28;20443;-93
2022/03/24 09:31:47;;;;;;;22.00;14.93;;;;;;;;;;10274337;28;21215;-93
2022/03/24 09:36:49;;;;;;;18.50;14.48;;;;;;;;;;10272609;28;20411;-92
2022/03/24 09:41:53;;;;;;;17.37;14.17;;;;;;;;;;10279723;28;20427;-92
2022/03/24 09:46:56;;;;;;;18.37;13.40;;;;;;;;;;10295152;28;20416;-91
2022/03/24 09:51:58;;;;;;;17.17;11.90;;;;;;;;;;10280619;28;20422;-91
2022/03/24 09:57:05;;;;;;;15.73;11.07;;;;;;;;;;10294701;28;20499;-92
2022/03/24 10:02:09;;;;;;;12.05;9.45;;;;;;;;;;10298065;28;20433;-93
2022/03/24 10:07:12;;;;;;;15.07;10.60;;;;;;;;;;10293419;28;20412;-92
2022/03/24 10:12:21;;;;;;;14.63;11.02;;;;;;;;;;10295410;28;20472;-89
2022/03/24 10:17:25;;;;;;;18.05;10.93;;;;;;;;;;10300355;28;20438;-92
2022/03/24 10:22:28;;;;;;;14.50;11.82;;;;;;;;;;10298098;28;20463;-91
2022/03/24 10:27:30;;;;;;;17.20;12.32;;;;;;;;;;10306429;28;20493;-92
2022/03/24 10:32:34;;;;;;;14.60;11.98;;;;;;;;;;10300916;28;20445;-92
2022/03/24 10:37:36;;;;;;;15.73;12.88;;;;;;;;;;10280709;28;20420;-92
2022/03/24 10:42:40;;;;;;;17.03;12.73;;;;;;;;;;10279263;28;20445;-93
2022/03/24 10:47:49;;;;;;;16.13;12.50;;;;;;;;;;10266695;28;20429;-92
2022/03/24 10:52:53;;;;;;;17.63;13.88;;;;;;;;;;10289934;28;20518;-90
2022/03/24 10:57:55;;;;;;;18.70;15.73;;;;;;;;;;10280810;28;20509;-92
2022/03/24 11:02:59;;;;;;;21.20;15.60;;;;;;;;;;10297898;28;20447;-92
2022/03/24 11:08:01;;;;;;;22.13;16.23;;;;;;;;;;10304192;28;20487;-91
2022/03/24 11:13:04;;;;;;;22.20;16.25;;;;;;;;;;10297309;28;20893;-90
2022/03/24 11:18:09;;;;;;;20.37;14.93;;;;;;;;;;10295997;28;20493;-90
2022/03/24 11:23:18;;;;;;;21.48;15.25;;;;;;;;;;10277516;28;20415;-91
2022/03/24 11:28:21;;;;;;;20.65;16.27;;;;;;;;;;10265131;28;20422;-93
2022/03/24 11:33:24;;;;;;;18.20;14.80;;;;;;;;;;10281164;28;20426;-93
2022/03/24 11:38:26;;;;;;;18.98;14.38;;;;;;;;;;10259721;28;20899;-92
2022/03/24 11:43:29;;;;;;;17.10;12.83;;;;;;;;;;10289759;28;20518;-91
2022/03/24 11:48:35;;;;;;;18.35;14.35;;;;;;;;;;10277515;28;20444;-91
2022/03/24 11:53:39;;;;;;;17.98;14.45;;;;;;;;;;10285780;28;21456;-92
2022/03/24 11:59:00;;;;;;;19.20;16.05;;;;;;;;;;10279901;28;20497;-92
2022/03/24 12:04:08;;;;;;;17.03;14.90;;;;;;;;;;10274631;28;20434;-91
2022/03/24 12:09:14;;;;;;;19.73;17.60;;;;;;;;;;10280720;28;20450;-92
2022/03/24 12:14:18;;;;;;;21.97;17.83;;;;;;;;;;10257264;28;20519;-92
2022/03/24 12:19:41;;;;;;;25.00;19.60;;;;;;;;;;10273848;28;20485;-91
2022/03/24 12:24:45;;;;;;;20.98;17.10;;;;;;;;;;10272438;28;20434;-94
2022/03/24 12:30:10;;;;;;;22.40;18.45;;;;;;;;;;10263753;28;20417;-92
2022/03/24 12:35:42;;;;;;;21.80;17.13;;;;;;;;;;10270634;28;20422;-93
2022/03/24 12:41:19;;;;;;;21.60;17.90;;;;;;;;;;10265206;28;20449;-93
2022/03/24 12:46:25;;;;;;;22.43;18.27;;;;;;;;;;10206061;28;20786;-93
2022/03/24 12:51:31;;;;;;;20.50;16.23;;;;;;;;;;10215272;28;20426;-92
2022/03/24 12:56:35;;;;;;;21.77;18.07;;;;;;;;;;10220784;28;20987;-93
2022/03/24 13:01:39;;;;;;;19.10;16.60;;;;;;;;;;10226357;28;20481;-91
2022/03/24 13:06:42;;;;;;;18.37;14.37;;;;;;;;;;10216440;28;20436;-94
2022/03/24 13:11:53;;;;;;;18.55;14.73;;;;;;;;;;10211912;28;20402;-91
2022/03/24 13:17:04;;;;;;;19.75;15.68;;;;;;;;;;10223903;28;20413;-89
2022/03/24 13:22:28;;;;;;;17.30;14.48;;;;;;;;;;10229384;28;20492;-91
2022/03/24 13:27:31;;;;;;;17.65;15.43;;;;;;;;;;10197827;29;20484;-90
2022/03/24 13:32:34;;;;;;;17.13;15.00;;;;;;;;;;10207586;29;20456;-91
2022/03/24 13:37:39;;;;;;;19.17;15.27;;;;;;;;;;10212777;29;20890;-91
2022/03/24 13:42:46;;;;;;;17.35;14.80;;;;;;;;;;10218370;28;20442;-87
2022/03/24 13:47:51;;;;;;;18.08;15.43;;;;;;;;;;10232372;28;20450;-89
2022/03/24 13:52:56;;;;;;;21.95;16.10;;;;;;;;;;10222258;28;20913;-90
2022/03/24 13:57:59;;;;;;;19.90;15.40;;;;;;;;;;10214337;28;20503;-89
2022/03/24 14:03:08;;;;;;;19.30;16.45;;;;;;;;;;10214082;28;20430;-90
2022/03/24 14:08:17;;;;;;;16.70;14.50;;;;;;;;;;10209669;29;20411;-90
2022/03/24 14:13:21;;;;;;;16.42;14.70;;;;;;;;;;10210049;28;20430;-89
2022/03/24 14:18:23;;;;;;;15.95;12.70;;;;;;;;;;10216551;28;20410;-90
2022/03/24 14:23:33;;;;;;;14.18;11.18;;;;;;;;;;10221256;28;20472;-89
2022/03/24 14:28:38;;;;;;;13.90;12.38;;;;;;;;;;10218982;28;20414;-89
2022/03/24 14:33:47;;;;;;;19.23;17.13;;;;;;;;;;10221397;28;20423;-91
2022/03/24 14:39:17;;;;;;;14.55;11.25;;;;;;;;;;10224541;28;20496;-92
2022/03/24 14:44:20;;;;;;;15.37;11.70;;;;;;;;;;10221426;28;20437;-92
2022/03/24 14:49:22;;;;;;;12.60;11.07;;;;;;;;;;10231606;28;20453;-92
2022/03/24 14:54:26;;;;;;;13.47;11.60;;;;;;;;;;10231220;28;21081;-89
2022/03/24 14:59:28;;;;;;;17.88;13.68;;;;;;;;;;10217327;29;20413;-88
2022/03/24 15:04:30;;;;;;;15.90;13.00;;;;;;;;;;10215555;28;20430;-88
2022/03/24 15:09:33;;;;;;;15.47;11.37;;;;;;;;;;10212477;29;20990;-90
2022/03/24 15:19:55;;;;;;;14.60;11.30;;;;;;;;;;10210676;29;20406;-89
2022/03/24 15:24:58;;;;;;;14.68;12.10;;;;;;;;;;10220678;29;20515;-93
2022/03/24 15:30:00;;;;;;;14.88;11.55;;;;;;;;;;10224465;29;20417;-91
2022/03/24 15:35:02;;;;;;;12.93;11.50;;;;;;;;;;10225565;29;20408;-91
2022/03/24 15:40:09;;;;;;;12.35;10.98;;;;;;;;;;10224856;28;20653;-91
2022/03/24 15:45:13;;;;;;;13.40;10.70;;;;;;;;;;10239909;28;20488;-92
2022/03/24 15:50:17;;;;;;;14.07;11.93;;;;;;;;;;10244403;28;20414;-92
2022/03/24 15:55:21;;;;;;;13.03;11.63;;;;;;;;;;10260972;28;20422;-91
2022/03/24 16:00:24;;;;;;;13.40;10.87;;;;;;;;;;10266938;28;20426;-90
2022/03/24 16:05:27;;;;;;;16.77;11.60;;;;;;;;;;10245075;28;20442;-92
2022/03/24 16:10:31;;;;;;;14.52;11.48;;;;;;;;;;10262430;28;21134;-92
2022/03/24 16:15:34;;;;;;;12.88;10.43;;;;;;;;;;10242813;28;20416;-92
2022/03/24 16:20:36;;;;;;;11.23;9.90;;;;;;;;;;10262021;28;20969;-91
2022/03/24 16:25:40;;;;;;;14.23;10.25;;;;;;;;;;10263619;28;20541;-91
2022/03/24 16:30:43;;;;;;;16.90;12.70;;;;;;;;;;10274663;28;20482;-89
2022/03/24 16:35:46;;;;;;;17.07;12.23;;;;;;;;;;10287096;28;20977;-90
2022/03/24 16:40:49;;;;;;;17.40;13.13;;;;;;;;;;10267346;28;20453;-91
2022/03/24 16:45:51;;;;;;;18.30;13.40;;;;;;;;;;10272974;28;20531;-90
2022/03/24 16:50:53;;;;;;;22.67;12.55;;;;;;;;;;10258059;28;21043;-91
2022/03/24 16:55:57;;;;;;;46.08;25.30;;;;;;;;;;10272506;28;20848;-91
2022/03/24 17:00:59;;;;;;;18.13;13.20;;;;;;;;;;10264665;28;20429;-92
2022/03/24 17:06:03;;;;;;;30.65;22.92;;;;;;;;;;10264664;28;20419;-90
2022/03/24 17:11:07;;;;;;;17.58;11.60;;;;;;;;;;10266549;28;20418;-90
2022/03/24 17:16:10;;;;;;;16.10;13.13;;;;;;;;;;10260662;28;20891;-92
2022/03/24 17:21:12;;;;;;;16.23;13.43;;;;;;;;;;10267810;28;20432;-91
2022/03/24 17:26:20;;;;;;;38.03;29.45;;;;;;;;;;10254584;28;20416;-90
2022/03/24 17:31:22;;;;;;;18.53;12.60;;;;;;;;;;10273518;28;20428;-90
2022/03/24 17:36:25;;;;;;;17.40;13.10;;;;;;;;;;10287669;28;20426;-90
2022/03/24 17:41:28;;;;;;;17.20;13.87;;;;;;;;;;10295023;28;20519;-90
2022/03/24 17:46:30;;;;;;;20.52;13.70;;;;;;;;;;10286177;28;20994;-91
2022/03/24 17:51:33;;;;;;;25.50;14.40;;;;;;;;;;10299397;28;20422;-91
2022/03/24 17:56:37;;;;;;;19.77;14.75;;;;;;;;;;10279621;28;20521;-91
2022/03/24 18:01:39;;;;;;;22.40;14.55;;;;;;;;;;10295419;28;20426;-90
2022/03/24 18:06:42;;;;;;;27.87;14.70;;;;;;;;;;10276364;28;20419;-91
2022/03/24 18:11:46;;;;;;;23.40;13.60;;;;;;;;;;10268749;28;20418;-91
2022/03/24 18:16:48;;;;;;;24.07;14.20;;;;;;;;;;10298035;28;20441;-91
2022/03/24 18:21:52;;;;;;;21.52;14.05;;;;;;;;;;10267111;28;20505;-90
2022/03/24 18:26:57;;;;;;;20.58;15.15;;;;;;;;;;10283222;28;20489;-92
2022/03/24 18:31:59;;;;;;;27.80;15.70;;;;;;;;;;10285668;28;20417;-91
2022/03/24 18:37:01;;;;;;;32.93;17.67;;;;;;;;;;10289309;28;20418;-90
2022/03/24 18:42:05;;;;;;;27.92;20.02;;;;;;;;;;10295739;28;20745;-91
2022/03/24 18:47:08;;;;;;;28.27;20.13;;;;;;;;;;10271889;28;20902;-91
2022/03/24 18:52:10;;;;;;;33.72;21.85;;;;;;;;;;10261990;28;20426;-90
2022/03/24 18:57:14;;;;;;;35.78;23.92;;;;;;;;;;10281282;28;20913;-91
2022/03/24 19:02:16;;;;;;;38.00;24.13;;;;;;;;;;10271893;28;20520;-92
2022/03/24 19:07:18;;;;;;;36.15;24.15;;;;;;;;;;10272902;28;20526;-90
2022/03/24 19:12:22;;;;;;;38.88;25.65;;;;;;;;;;10266277;28;20422;-91
2022/03/24 19:17:25;;;;;;;38.85;26.55;;;;;;;;;;10257772;28;20414;-94
2022/03/24 19:22:27;;;;;;;38.47;26.30;;;;;;;;;;10272908;28;20420;-91
2022/03/24 19:27:31;;;;;;;43.28;27.00;;;;;;;;;;10265187;28;20922;-92
2022/03/24 19:32:33;;;;;;;42.97;28.33;;;;;;;;;;10277561;28;20436;-93
2022/03/24 19:37:35;;;;;;;46.43;30.27;;;;;;;;;;10274512;28;20495;-90
2022/03/24 19:42:38;;;;;;;50.10;35.03;;;;;;;;;;10280892;28;20429;-93
2022/03/24 19:47:40;;;;;;;52.00;34.28;;;;;;;;;;10275095;28;20454;-92
2022/03/24 19:52:43;;;;;;;48.53;33.40;;;;;;;;;;10258394;28;21326;-92
2022/03/24 19:57:46;;;;;;;54.30;34.72;;;;;;;;;;10251624;28;20978;-93
2022/03/24 20:02:52;;;;;;;53.42;36.45;;;;;;;;;;10258119;28;20420;-93
2022/03/24 20:07:54;;;;;;;52.65;34.83;;;;;;;;;;10246171;28;20428;-92
2022/03/24 20:12:58;;;;;;;55.37;34.83;;;;;;;;;;10260357;28;20521;-92
2022/03/24 20:18:00;;;;;;;54.17;34.33;;;;;;;;;;10244444;28;20416;-93
2022/03/24 20:23:03;;;;;;;48.40;33.70;;;;;;;;;;10262480;28;20413;-92
2022/03/24 20:28:07;;;;;;;52.47;33.78;;;;;;;;;;10255683;28;20428;-92
2022/03/24 20:33:09;;;;;;;52.22;33.90;;;;;;;;;;10242209;28;20419;-92
2022/03/24 20:38:11;;;;;;;50.07;33.37;;;;;;;;;;10280762;28;20405;-92
2022/03/24 20:43:14;;;;;;;52.97;34.30;;;;;;;;;;10263330;28;20418;-92
2022/03/24 20:48:16;;;;;;;54.80;35.17;;;;;;;;;;10259822;28;20428;-93
2022/03/24 20:53:19;;;;;;;57.70;36.30;;;;;;;;;;10265782;28;20426;-92
2022/03/24 20:58:24;;;;;;;57.70;37.35;;;;;;;;;;10274710;28;20466;-94
2022/03/24 21:03:26;;;;;;;59.88;39.40;;;;;;;;;;10265440;28;20421;-94
2022/03/24 21:08:28;;;;;;;57.95;38.88;;;;;;;;;;10271341;28;20466;-93
2022/03/24 21:13:32;;;;;;;60.25;39.88;;;;;;;;;;10268620;28;20424;-94
2022/03/24 21:18:36;;;;;;;61.85;39.03;;;;;;;;;;10274455;28;20438;-92
2022/03/24 21:23:38;;;;;;;69.43;40.30;;;;;;;;;;10269335;28;20482;-93
2022/03/24 21:28:42;;;;;;;57.15;38.67;;;;;;;;;;10271164;28;20426;-93
2022/03/24 21:33:45;;;;;;;60.70;38.77;;;;;;;;;;10264246;28;20427;-93
2022/03/24 21:38:48;;;;;;;59.15;39.33;;;;;;;;;;10269423;28;20430;-95
2022/03/24 21:43:52;;;;;;;62.67;39.80;;;;;;;;;;10271129;28;20416;-94
2022/03/24 21:48:54;;;;;;;61.17;41.17;;;;;;;;;;10261830;28;20514;-93
2022/03/24 21:53:58;;;;;;;74.72;49.45;;;;;;;;;;10279147;28;20473;-93
2022/03/24 21:59:01;;;;;;;61.67;40.25;;;;;;;;;;10257459;28;20495;-93
2022/03/24 22:04:04;;;;;;;69.37;42.20;;;;;;;;;;10273605;28;20414;-94
2022/03/24 22:09:07;;;;;;;64.30;40.90;;;;;;;;;;10258201;28;20414;-94
2022/03/24 22:14:11;;;;;;;69.65;41.58;;;;;;;;;;10259084;28;20414;-92
2022/03/24 22:19:13;;;;;;;73.15;43.08;;;;;;;;;;10272347;28;20502;-93
2022/03/24 22:24:15;;;;;;;64.00;43.83;;;;;;;;;;10263816;28;20428;-92
2022/03/24 22:29:18;;;;;;;64.05;42.05;;;;;;;;;;10257011;28;20451;-93
2022/03/24 22:34:21;;;;;;;66.15;41.55;;;;;;;;;;10262069;28;20525;-94
2022/03/24 22:39:26;;;;;;;64.68;40.60;;;;;;;;;;10270005;28;20910;-93
2022/03/24 22:44:30;;;;;;;64.73;41.60;;;;;;;;;;10271406;28;20426;-94
2022/03/24 22:49:33;;;;;;;61.13;40.47;;;;;;;;;;10262331;28;20422;-93
2022/03/24 22:54:35;;;;;;;64.33;41.80;;;;;;;;;;10261920;28;20488;-92
2022/03/24 22:59:39;;;;;;;66.47;41.05;;;;;;;;;;10273379;28;20455;-92
2022/03/24 23:04:41;;;;;;;64.70;43.00;;;;;;;;;;10291346;28;20426;-92
2022/03/24 23:09:44;;;;;;;67.22;42.03;;;;;;;;;;10287611;28;20419;-92
2022/03/24 23:14:47;;;;;;;66.00;41.72;;;;;;;;;;10307498;28;20411;-91
2022/03/24 23:19:49;;;;;;;64.97;41.65;;;;;;;;;;10316515;28;20407;-93
2022/03/24 23:24:51;;;;;;;64.03;40.60;;;;;;;;;;10291189;28;20462;-92
2022/03/24 23:29:54;;;;;;;64.38;40.90;;;;;;;;;;10268188;28;20416;-92
2022/03/24 23:34:56;;;;;;;62.57;41.87;;;;;;;;;;10274657;28;20978;-92
2022/03/24 23:39:58;;;;;;;61.42;40.05;;;;;;;;;;10281511;28;20511;-92
2022/03/24 23:45:01;;;;;;;60.63;40.58;;;;;;;;;;10274558;28;20430;-92
2022/03/24 23:50:04;;;;;;;63.90;41.00;;;;;;;;;;10292213;28;20509;-91
2022/03/24 23:55:07;;;;;;;63.00;40.72;;;;;;;;;;10271334;28;20410;-91
